createdAt,value
2019-01-17T00:03:07.078Z,8.50
2019-01-17T00:08:30.222Z,10.60
2019-01-17T00:13:41.023Z,11.77
2019-01-17T00:19:23.240Z,7.90
2019-01-17T00:24:36.276Z,10.20
2019-01-17T00:30:18.497Z,10.00
2019-01-17T00:35:31.191Z,11.77
2019-01-17T00:40:54.340Z,13.73
2019-01-17T00:46:26.536Z,12.40
2019-01-17T00:51:49.703Z,9.37
2019-01-17T00:57:20.280Z,11.27
2019-01-17T01:03:02.480Z,10.67
2019-01-17T01:08:46.518Z,10.73
2019-01-17T01:14:30.237Z,11.30
2019-01-17T01:19:53.675Z,7.43
2019-01-17T01:25:16.815Z,6.67
2019-01-17T01:30:31.399Z,12.33
2019-01-17T01:35:54.535Z,9.07
2019-01-17T01:41:17.679Z,6.40
2019-01-17T01:46:59.888Z,7.23
2019-01-17T01:52:23.025Z,8.27
2019-01-17T02:02:37.633Z,9.70
2019-01-17T02:08:00.920Z,5.93
2019-01-17T02:18:35.112Z,8.90
2019-01-17T02:23:39.339Z,4.60
2019-01-17T02:29:02.636Z,6.10
2019-01-17T02:34:06.860Z,6.00
2019-01-17T02:44:20.638Z,4.47
2019-01-17T02:49:24.865Z,5.70
2019-01-17T02:54:35.568Z,5.60
2019-01-17T02:59:35.051Z,7.03
2019-01-17T03:04:51.044Z,3.97
2019-01-17T03:09:55.284Z,4.87
2019-01-17T03:20:49.303Z,4.30
2019-01-17T03:25:53.544Z,5.73
2019-01-17T03:30:57.895Z,3.27
2019-01-17T03:36:02.382Z,2.67
2019-01-17T03:41:06.613Z,2.47
2019-01-17T03:46:29.911Z,4.10
2019-01-17T03:56:43.679Z,2.73
2019-01-17T04:01:47.963Z,2.90
2019-01-17T04:06:52.218Z,3.53
2019-01-17T04:11:56.454Z,4.03
2019-01-17T04:17:00.700Z,3.13
2019-01-17T04:22:05.001Z,3.47
2019-01-17T04:27:48.677Z,1.90
2019-01-17T04:32:52.906Z,3.00
2019-01-17T04:38:16.196Z,1.93
2019-01-17T04:43:20.427Z,1.50
2019-01-17T04:48:24.656Z,1.60
2019-01-17T04:53:48.051Z,1.70
2019-01-17T05:09:11.560Z,1.20
2019-01-17T05:14:34.861Z,1.20
2019-01-17T05:24:49.243Z,1.00
2019-01-17T05:35:44.224Z,0.90
2019-01-17T05:45:57.973Z,1.93
2019-01-17T05:51:02.204Z,1.00
2019-01-17T05:56:25.783Z,1.17
2019-01-17T06:01:49.076Z,1.67
2019-01-17T06:07:12.686Z,1.23
2019-01-17T06:12:28.153Z,1.50
2019-01-17T06:17:32.386Z,1.27
2019-01-17T06:28:05.247Z,1.43
2019-01-17T06:33:09.479Z,1.37
2019-01-17T06:38:13.708Z,1.60
2019-01-17T06:43:37.081Z,1.37
2019-01-17T06:48:41.660Z,1.73
2019-01-17T06:58:55.259Z,1.50
2019-01-17T07:04:18.564Z,1.27
2019-01-17T07:09:22.789Z,2.47
2019-01-17T07:14:27.127Z,1.37
2019-01-17T07:24:40.660Z,2.50
2019-01-17T07:29:44.897Z,1.10
2019-01-17T07:34:49.127Z,1.20
2019-01-17T08:01:15.091Z,2.03
2019-01-17T08:06:17.837Z,0.80
2019-01-17T08:11:22.104Z,1.63
2019-01-17T08:21:54.802Z,2.73
2019-01-17T08:26:58.976Z,1.57
2019-01-17T08:37:32.182Z,0.97
2019-01-17T08:47:46.119Z,1.30
2019-01-17T08:52:50.381Z,2.37
2019-01-17T08:57:54.991Z,3.03
2019-01-17T09:02:59.214Z,3.63
2019-01-17T09:08:03.439Z,3.00
2019-01-17T09:13:07.651Z,2.00
2019-01-17T09:18:11.927Z,1.13
2019-01-17T09:23:16.173Z,1.03
2019-01-17T09:28:20.412Z,1.13
2019-01-17T09:33:43.708Z,0.77
2019-01-17T09:44:38.377Z,0.80
2019-01-17T09:55:12.093Z,1.23
2019-01-17T10:05:44.732Z,1.67
2019-01-17T10:10:48.973Z,0.87
2019-01-17T10:16:37.891Z,1.23
2019-01-17T10:22:26.966Z,0.70
2019-01-17T10:28:16.231Z,1.00
2019-01-17T10:33:31.744Z,2.47
2019-01-17T10:39:09.672Z,1.50
2019-01-17T10:44:44.239Z,1.03
2019-01-17T10:50:20.629Z,2.27
2019-01-17T10:56:06.307Z,1.03
2019-01-17T11:01:48.011Z,0.83
2019-01-17T11:07:29.027Z,1.97
2019-01-17T11:13:17.788Z,2.03
2019-01-17T11:19:05.220Z,2.50
2019-01-17T11:24:47.537Z,1.27
2019-01-17T11:30:29.897Z,1.10
2019-01-17T11:36:12.191Z,0.67
2019-01-17T11:41:54.495Z,1.77
2019-01-17T11:47:36.839Z,0.30
2019-01-17T11:53:19.206Z,1.27
2019-01-17T11:59:01.819Z,2.77
2019-01-17T12:04:44.099Z,0.93
2019-01-17T12:20:14.392Z,1.53
2019-01-17T12:25:18.691Z,3.73
2019-01-17T12:30:22.955Z,1.30
2019-01-17T12:35:27.187Z,1.87
2019-01-17T12:40:50.487Z,0.80
2019-01-17T12:46:13.789Z,2.07
2019-01-17T12:56:46.726Z,4.07
2019-01-17T13:01:50.981Z,3.23
2019-01-17T13:06:55.228Z,1.00
2019-01-17T13:11:59.527Z,1.73
2019-01-17T13:17:04.144Z,2.20
2019-01-17T13:22:08.448Z,0.97
2019-01-17T13:27:12.791Z,1.90
2019-01-17T13:32:17.092Z,0.90
2019-01-17T13:37:21.436Z,0.80
2019-01-17T13:42:25.658Z,0.67
2019-01-17T13:47:29.891Z,1.33
2019-01-17T13:52:34.364Z,0.53
2019-01-17T13:57:38.587Z,0.93
2019-01-17T14:02:42.885Z,1.20
2019-01-17T14:07:47.760Z,0.57
2019-01-17T14:12:52.081Z,0.40
2019-01-17T14:17:56.311Z,1.40
2019-01-17T14:23:00.649Z,6.43
2019-01-17T14:28:05.024Z,1.20
2019-01-17T14:33:09.316Z,3.57
2019-01-17T14:38:13.638Z,3.53
2019-01-17T14:43:18.071Z,6.20
2019-01-17T14:48:22.308Z,4.43
2019-01-17T14:53:26.662Z,4.70
2019-01-17T14:58:30.963Z,4.63
2019-01-17T15:03:35.178Z,3.67
2019-01-17T15:08:39.438Z,5.33
2019-01-17T15:14:03.071Z,8.03
2019-01-17T15:19:26.436Z,5.53
2019-01-17T15:24:49.746Z,2.20
2019-01-17T15:29:54.413Z,2.73
2019-01-17T15:34:58.660Z,1.97
2019-01-17T15:45:53.544Z,2.60
2019-01-17T15:51:16.851Z,2.60
2019-01-17T15:56:21.117Z,3.10
2019-01-17T16:01:44.402Z,3.67
2019-01-17T16:07:28.128Z,3.00
2019-01-17T16:12:32.345Z,1.20
2019-01-17T16:17:36.608Z,1.60
2019-01-17T16:22:40.855Z,2.17
2019-01-17T16:28:04.152Z,2.13
2019-01-17T16:33:19.740Z,7.07
2019-01-17T16:38:24.083Z,4.00
2019-01-17T16:43:47.376Z,2.77
2019-01-17T16:54:01.723Z,4.03
2019-01-17T16:59:05.976Z,4.27
2019-01-17T17:04:29.265Z,4.37
2019-01-17T17:15:02.405Z,6.87
2019-01-17T17:20:46.834Z,4.93
2019-01-17T17:25:51.091Z,9.23
2019-01-17T17:31:14.654Z,7.73
2019-01-17T17:36:18.953Z,6.07
2019-01-17T17:41:42.248Z,5.03
2019-01-17T17:47:05.549Z,12.57
2019-01-17T17:52:10.168Z,4.83
2019-01-17T17:57:14.396Z,4.77
2019-01-17T18:02:37.656Z,5.77
2019-01-17T18:08:00.956Z,4.87
2019-01-17T18:13:44.567Z,7.50
2019-01-17T18:18:48.795Z,4.37
2019-01-17T18:24:12.133Z,6.33
2019-01-17T18:40:27.690Z,3.00
2019-01-17T18:46:11.402Z,9.20
2019-01-17T18:57:25.702Z,6.73
2019-01-17T19:02:29.928Z,3.80
2019-01-17T19:07:53.353Z,5.47
2019-01-17T19:18:27.312Z,8.13
2019-01-17T19:23:31.696Z,7.93
2019-01-17T19:28:35.942Z,10.30
2019-01-17T19:33:40.180Z,5.40
2019-01-17T19:38:44.411Z,4.93
2019-01-17T19:44:00.117Z,12.07
2019-01-17T19:54:54.069Z,12.57
2019-01-17T19:59:58.309Z,12.77
2019-01-17T20:11:12.698Z,8.10
2019-01-17T20:16:36.013Z,9.37
2019-01-17T20:21:40.751Z,8.03
2019-01-17T20:27:04.798Z,3.87
2019-01-17T20:32:28.680Z,4.87
2019-01-17T20:37:33.991Z,5.97
2019-01-17T20:42:38.325Z,7.80
2019-01-17T20:47:43.903Z,5.97
2019-01-17T20:52:48.273Z,7.37
2019-01-17T20:57:52.696Z,6.97
2019-01-17T21:02:57.235Z,5.37
2019-01-17T21:08:01.623Z,4.73
2019-01-17T21:13:05.844Z,7.97
2019-01-17T21:18:10.100Z,9.17
2019-01-17T21:23:14.400Z,6.20
2019-01-17T21:28:18.691Z,3.97
2019-01-17T21:33:23.017Z,6.07
2019-01-17T21:38:27.363Z,4.47
2019-01-17T21:43:31.604Z,6.70
2019-01-17T21:48:36.224Z,7.47
2019-01-17T21:53:40.535Z,4.50
2019-01-17T21:58:44.753Z,8.33
2019-01-17T22:03:49.249Z,8.93
2019-01-17T22:08:53.566Z,7.40
2019-01-17T22:13:57.783Z,5.93
2019-01-17T22:19:02.357Z,3.10
2019-01-17T22:24:07.478Z,4.70
2019-01-17T22:29:11.739Z,3.50
2019-01-17T22:34:16.705Z,5.13
2019-01-17T22:39:20.939Z,5.30
2019-01-17T22:44:25.345Z,8.57
2019-01-17T22:49:30.142Z,4.13
2019-01-17T22:54:34.696Z,10.10
2019-01-17T22:59:40.095Z,11.03
2019-01-17T23:04:44.399Z,9.80
2019-01-17T23:09:48.637Z,8.27
2019-01-17T23:15:11.933Z,12.97
2019-01-17T23:20:35.237Z,7.37
2019-01-17T23:25:58.642Z,7.87
2019-01-17T23:31:03.317Z,11.90
2019-01-17T23:36:26.954Z,9.70
2019-01-17T23:41:50.253Z,7.90
2019-01-17T23:46:54.519Z,8.47
2019-01-17T23:52:10.814Z,6.00
2019-01-17T23:57:15.041Z,7.80
